sensor_id;sensor_type;location;lat;lon;timestamp;P1;durP1;ratioP1;P2;durP2;ratioP2
51228;SDS011;37304;52.216;6.874;2022-08-19T00:03:18;8.38;;;6.85;;
51228;SDS011;37304;52.216;6.874;2022-08-19T00:08:18;9.95;;;7.50;;
51228;SDS011;37304;52.216;6.874;2022-08-19T00:13:19;7.97;;;6.65;;
51228;SDS011;37304;52.216;6.874;2022-08-19T00:18:19;11.27;;;7.50;;
51228;SDS011;37304;52.216;6.874;2022-08-19T00:23:20;10.02;;;6.95;;
51228;SDS011;37304;52.216;6.874;2022-08-19T00:28:20;8.57;;;7.53;;
51228;SDS011;37304;52.216;6.874;2022-08-19T00:33:20;9.80;;;6.73;;
51228;SDS011;37304;52.216;6.874;2022-08-19T00:38:21;12.45;;;7.65;;
51228;SDS011;37304;52.216;6.874;2022-08-19T00:43:23;13.57;;;8.50;;
51228;SDS011;37304;52.216;6.874;2022-08-19T00:48:26;11.00;;;8.98;;
51228;SDS011;37304;52.216;6.874;2022-08-19T00:53:27;11.07;;;8.95;;
51228;SDS011;37304;52.216;6.874;2022-08-19T00:58:31;11.82;;;9.13;;
51228;SDS011;37304;52.216;6.874;2022-08-19T01:03:34;13.30;;;9.80;;
51228;SDS011;37304;52.216;6.874;2022-08-19T01:08:35;13.02;;;9.80;;
51228;SDS011;37304;52.216;6.874;2022-08-19T01:13:35;14.32;;;10.20;;
51228;SDS011;37304;52.216;6.874;2022-08-19T01:18:36;15.40;;;11.10;;
51228;SDS011;37304;52.216;6.874;2022-08-19T01:23:41;12.68;;;10.25;;
51228;SDS011;37304;52.216;6.874;2022-08-19T01:28:45;13.57;;;10.73;;
51228;SDS011;37304;52.216;6.874;2022-08-19T01:33:47;14.18;;;11.23;;
51228;SDS011;37304;52.216;6.874;2022-08-19T01:38:49;16.15;;;11.45;;
51228;SDS011;37304;52.216;6.874;2022-08-19T01:43:50;14.45;;;11.63;;
51228;SDS011;37304;52.216;6.874;2022-08-19T01:48:51;15.07;;;11.32;;
51228;SDS011;37304;52.216;6.874;2022-08-19T01:53:51;15.57;;;12.68;;
51228;SDS011;37304;52.216;6.874;2022-08-19T01:58:54;16.55;;;12.55;;
51228;SDS011;37304;52.216;6.874;2022-08-19T02:03:58;13.93;;;11.90;;
51228;SDS011;37304;52.216;6.874;2022-08-19T02:09:00;15.30;;;12.05;;
51228;SDS011;37304;52.216;6.874;2022-08-19T02:14:02;17.25;;;13.40;;
51228;SDS011;37304;52.216;6.874;2022-08-19T02:19:04;17.30;;;13.10;;
51228;SDS011;37304;52.216;6.874;2022-08-19T02:24:04;17.25;;;12.82;;
51228;SDS011;37304;52.216;6.874;2022-08-19T02:29:05;16.95;;;13.75;;
51228;SDS011;37304;52.216;6.874;2022-08-19T02:34:06;17.60;;;13.98;;
51228;SDS011;37304;52.216;6.874;2022-08-19T02:39:06;17.70;;;13.95;;
51228;SDS011;37304;52.216;6.874;2022-08-19T02:44:06;20.73;;;14.00;;
51228;SDS011;37304;52.216;6.874;2022-08-19T02:49:07;18.53;;;13.97;;
51228;SDS011;37304;52.216;6.874;2022-08-19T02:54:08;18.90;;;14.02;;
51228;SDS011;37304;52.216;6.874;2022-08-19T02:59:11;20.33;;;14.53;;
51228;SDS011;37304;52.216;6.874;2022-08-19T03:04:12;20.08;;;14.77;;
51228;SDS011;37304;52.216;6.874;2022-08-19T03:09:16;21.52;;;15.25;;
51228;SDS011;37304;52.216;6.874;2022-08-19T03:14:17;20.77;;;16.00;;
51228;SDS011;37304;52.216;6.874;2022-08-19T03:19:19;20.83;;;15.05;;
51228;SDS011;37304;52.216;6.874;2022-08-19T03:24:21;22.17;;;16.30;;
51228;SDS011;37304;52.216;6.874;2022-08-19T03:29:21;20.50;;;16.48;;
51228;SDS011;37304;52.216;6.874;2022-08-19T03:34:23;20.00;;;14.82;;
51228;SDS011;37304;52.216;6.874;2022-08-19T03:39:27;21.38;;;14.85;;
51228;SDS011;37304;52.216;6.874;2022-08-19T03:44:29;21.95;;;14.70;;
51228;SDS011;37304;52.216;6.874;2022-08-19T03:49:31;21.67;;;15.25;;
51228;SDS011;37304;52.216;6.874;2022-08-19T03:54:33;20.30;;;14.47;;
51228;SDS011;37304;52.216;6.874;2022-08-19T03:59:35;21.02;;;15.13;;
51228;SDS011;37304;52.216;6.874;2022-08-19T04:04:41;21.88;;;15.68;;
51228;SDS011;37304;52.216;6.874;2022-08-19T04:09:43;23.35;;;15.68;;
51228;SDS011;37304;52.216;6.874;2022-08-19T04:14:43;22.70;;;16.02;;
51228;SDS011;37304;52.216;6.874;2022-08-19T04:19:44;19.23;;;15.45;;
51228;SDS011;37304;52.216;6.874;2022-08-19T04:24:44;25.85;;;17.02;;
51228;SDS011;37304;52.216;6.874;2022-08-19T04:29:45;29.73;;;17.20;;
51228;SDS011;37304;52.216;6.874;2022-08-19T04:34:45;22.15;;;15.85;;
51228;SDS011;37304;52.216;6.874;2022-08-19T04:39:45;23.13;;;15.32;;
51228;SDS011;37304;52.216;6.874;2022-08-19T04:45:05;20.88;;;15.13;;
51228;SDS011;37304;52.216;6.874;2022-08-19T04:50:09;27.48;;;16.23;;
51228;SDS011;37304;52.216;6.874;2022-08-19T04:55:11;25.88;;;16.08;;
51228;SDS011;37304;52.216;6.874;2022-08-19T05:00:12;39.05;;;18.45;;
51228;SDS011;37304;52.216;6.874;2022-08-19T05:05:13;22.85;;;16.83;;
51228;SDS011;37304;52.216;6.874;2022-08-19T05:10:14;22.20;;;16.23;;
51228;SDS011;37304;52.216;6.874;2022-08-19T05:15:14;26.83;;;17.10;;
51228;SDS011;37304;52.216;6.874;2022-08-19T05:20:14;21.03;;;16.13;;
51228;SDS011;37304;52.216;6.874;2022-08-19T05:25:33;24.55;;;17.35;;
51228;SDS011;37304;52.216;6.874;2022-08-19T05:30:33;20.50;;;15.07;;
51228;SDS011;37304;52.216;6.874;2022-08-19T05:35:35;23.50;;;17.40;;
51228;SDS011;37304;52.216;6.874;2022-08-19T05:40:38;23.23;;;16.90;;
51228;SDS011;37304;52.216;6.874;2022-08-19T05:45:40;22.53;;;16.93;;
51228;SDS011;37304;52.216;6.874;2022-08-19T05:50:42;21.73;;;16.35;;
51228;SDS011;37304;52.216;6.874;2022-08-19T05:55:42;23.90;;;16.50;;
51228;SDS011;37304;52.216;6.874;2022-08-19T06:00:43;24.85;;;16.75;;
51228;SDS011;37304;52.216;6.874;2022-08-19T06:05:44;22.63;;;16.80;;
51228;SDS011;37304;52.216;6.874;2022-08-19T06:10:45;22.80;;;17.02;;
51228;SDS011;37304;52.216;6.874;2022-08-19T06:15:46;24.43;;;17.43;;
51228;SDS011;37304;52.216;6.874;2022-08-19T06:20:46;25.27;;;17.00;;
51228;SDS011;37304;52.216;6.874;2022-08-19T06:25:47;26.20;;;18.73;;
51228;SDS011;37304;52.216;6.874;2022-08-19T06:30:47;23.40;;;17.10;;
51228;SDS011;37304;52.216;6.874;2022-08-19T06:35:48;26.83;;;17.40;;
51228;SDS011;37304;52.216;6.874;2022-08-19T06:40:48;25.37;;;16.43;;
51228;SDS011;37304;52.216;6.874;2022-08-19T06:45:48;22.63;;;15.80;;
51228;SDS011;37304;52.216;6.874;2022-08-19T06:50:51;22.23;;;17.23;;
51228;SDS011;37304;52.216;6.874;2022-08-19T06:55:52;21.83;;;15.57;;
51228;SDS011;37304;52.216;6.874;2022-08-19T07:01:02;19.38;;;15.27;;
51228;SDS011;37304;52.216;6.874;2022-08-19T07:06:05;20.90;;;16.08;;
51228;SDS011;37304;52.216;6.874;2022-08-19T07:11:11;19.60;;;14.95;;
51228;SDS011;37304;52.216;6.874;2022-08-19T07:16:14;19.67;;;14.73;;
51228;SDS011;37304;52.216;6.874;2022-08-19T07:21:20;18.45;;;14.07;;
51228;SDS011;37304;52.216;6.874;2022-08-19T07:26:25;17.42;;;13.18;;
51228;SDS011;37304;52.216;6.874;2022-08-19T07:31:27;19.83;;;13.52;;
51228;SDS011;37304;52.216;6.874;2022-08-19T07:36:28;16.38;;;12.05;;
51228;SDS011;37304;52.216;6.874;2022-08-19T07:41:31;17.83;;;12.00;;
51228;SDS011;37304;52.216;6.874;2022-08-19T07:46:32;17.90;;;12.32;;
51228;SDS011;37304;52.216;6.874;2022-08-19T07:51:38;15.57;;;12.50;;
51228;SDS011;37304;52.216;6.874;2022-08-19T07:56:39;12.43;;;11.10;;
51228;SDS011;37304;52.216;6.874;2022-08-19T08:01:39;13.27;;;11.18;;
51228;SDS011;37304;52.216;6.874;2022-08-19T08:06:40;13.70;;;11.20;;
51228;SDS011;37304;52.216;6.874;2022-08-19T08:12:05;15.68;;;11.77;;
51228;SDS011;37304;52.216;6.874;2022-08-19T08:17:09;15.43;;;12.38;;
51228;SDS011;37304;52.216;6.874;2022-08-19T08:22:11;14.20;;;11.23;;
51228;SDS011;37304;52.216;6.874;2022-08-19T08:27:35;15.93;;;12.18;;
51228;SDS011;37304;52.216;6.874;2022-08-19T08:32:40;16.10;;;12.90;;
51228;SDS011;37304;52.216;6.874;2022-08-19T08:37:41;13.70;;;11.45;;
51228;SDS011;37304;52.216;6.874;2022-08-19T08:42:45;17.77;;;11.75;;
51228;SDS011;37304;52.216;6.874;2022-08-19T08:48:14;18.92;;;12.75;;
51228;SDS011;37304;52.216;6.874;2022-08-19T08:53:37;15.70;;;11.52;;
51228;SDS011;37304;52.216;6.874;2022-08-19T08:58:42;16.20;;;12.18;;
51228;SDS011;37304;52.216;6.874;2022-08-19T09:03:54;12.77;;;11.45;;
51228;SDS011;37304;52.216;6.874;2022-08-19T09:09:17;16.30;;;11.45;;
51228;SDS011;37304;52.216;6.874;2022-08-19T09:14:32;14.93;;;10.80;;
51228;SDS011;37304;52.216;6.874;2022-08-19T09:25:13;12.55;;;9.32;;
51228;SDS011;37304;52.216;6.874;2022-08-19T09:30:16;12.43;;;8.80;;
51228;SDS011;37304;52.216;6.874;2022-08-19T09:35:22;12.93;;;11.00;;
51228;SDS011;37304;52.216;6.874;2022-08-19T09:40:26;13.07;;;10.15;;
51228;SDS011;37304;52.216;6.874;2022-08-19T09:45:28;16.25;;;11.35;;
51228;SDS011;37304;52.216;6.874;2022-08-19T09:50:29;14.07;;;11.25;;
51228;SDS011;37304;52.216;6.874;2022-08-19T09:55:42;11.13;;;8.45;;
51228;SDS011;37304;52.216;6.874;2022-08-19T10:00:43;13.00;;;10.23;;
51228;SDS011;37304;52.216;6.874;2022-08-19T10:05:43;10.77;;;9.43;;
51228;SDS011;37304;52.216;6.874;2022-08-19T10:10:49;10.02;;;8.43;;
51228;SDS011;37304;52.216;6.874;2022-08-19T10:15:50;11.38;;;8.90;;
51228;SDS011;37304;52.216;6.874;2022-08-19T10:21:02;11.55;;;9.25;;
51228;SDS011;37304;52.216;6.874;2022-08-19T10:26:08;11.80;;;10.23;;
51228;SDS011;37304;52.216;6.874;2022-08-19T10:31:10;12.95;;;9.27;;
51228;SDS011;37304;52.216;6.874;2022-08-19T10:36:19;10.23;;;8.98;;
51228;SDS011;37304;52.216;6.874;2022-08-19T10:41:23;13.60;;;10.20;;
51228;SDS011;37304;52.216;6.874;2022-08-19T10:46:26;22.60;;;9.73;;
51228;SDS011;37304;52.216;6.874;2022-08-19T10:51:27;13.30;;;10.10;;
51228;SDS011;37304;52.216;6.874;2022-08-19T10:56:46;11.43;;;8.73;;
51228;SDS011;37304;52.216;6.874;2022-08-19T11:01:53;17.13;;;9.25;;
51228;SDS011;37304;52.216;6.874;2022-08-19T11:06:55;11.77;;;9.50;;
51228;SDS011;37304;52.216;6.874;2022-08-19T11:11:56;11.13;;;9.55;;
51228;SDS011;37304;52.216;6.874;2022-08-19T11:16:56;15.77;;;9.70;;
51228;SDS011;37304;52.216;6.874;2022-08-19T11:21:57;12.20;;;9.65;;
51228;SDS011;37304;52.216;6.874;2022-08-19T11:27:04;12.85;;;9.68;;
51228;SDS011;37304;52.216;6.874;2022-08-19T11:32:08;23.45;;;8.65;;
51228;SDS011;37304;52.216;6.874;2022-08-19T11:37:09;10.80;;;8.30;;
51228;SDS011;37304;52.216;6.874;2022-08-19T11:42:10;11.88;;;9.75;;
51228;SDS011;37304;52.216;6.874;2022-08-19T11:47:29;11.02;;;7.72;;
51228;SDS011;37304;52.216;6.874;2022-08-19T11:52:30;10.10;;;7.80;;
51228;SDS011;37304;52.216;6.874;2022-08-19T11:57:31;9.70;;;8.13;;
51228;SDS011;37304;52.216;6.874;2022-08-19T12:02:31;10.38;;;7.63;;
51228;SDS011;37304;52.216;6.874;2022-08-19T12:07:32;9.15;;;7.18;;
51228;SDS011;37304;52.216;6.874;2022-08-19T12:12:33;8.60;;;6.63;;
51228;SDS011;37304;52.216;6.874;2022-08-19T12:17:34;8.52;;;6.63;;
51228;SDS011;37304;52.216;6.874;2022-08-19T12:22:35;8.07;;;6.07;;
51228;SDS011;37304;52.216;6.874;2022-08-19T12:27:37;7.18;;;6.40;;
51228;SDS011;37304;52.216;6.874;2022-08-19T12:32:39;7.70;;;6.03;;
51228;SDS011;37304;52.216;6.874;2022-08-19T12:37:40;7.28;;;5.22;;
51228;SDS011;37304;52.216;6.874;2022-08-19T12:42:42;6.40;;;5.07;;
51228;SDS011;37304;52.216;6.874;2022-08-19T12:47:42;8.33;;;4.80;;
51228;SDS011;37304;52.216;6.874;2022-08-19T12:52:43;5.55;;;3.88;;
51228;SDS011;37304;52.216;6.874;2022-08-19T12:57:43;4.90;;;4.37;;
51228;SDS011;37304;52.216;6.874;2022-08-19T13:02:45;5.55;;;4.55;;
51228;SDS011;37304;52.216;6.874;2022-08-19T13:07:47;3.63;;;3.25;;
51228;SDS011;37304;52.216;6.874;2022-08-19T13:12:48;4.23;;;3.33;;
51228;SDS011;37304;52.216;6.874;2022-08-19T13:17:51;4.43;;;3.38;;
51228;SDS011;37304;52.216;6.874;2022-08-19T13:22:53;4.70;;;3.85;;
51228;SDS011;37304;52.216;6.874;2022-08-19T13:27:54;4.50;;;3.73;;
51228;SDS011;37304;52.216;6.874;2022-08-19T13:32:55;4.17;;;3.77;;
51228;SDS011;37304;52.216;6.874;2022-08-19T13:38:15;6.72;;;4.70;;
51228;SDS011;37304;52.216;6.874;2022-08-19T13:43:18;8.05;;;5.68;;
51228;SDS011;37304;52.216;6.874;2022-08-19T13:48:19;8.95;;;6.60;;
51228;SDS011;37304;52.216;6.874;2022-08-19T13:53:20;10.67;;;7.63;;
51228;SDS011;37304;52.216;6.874;2022-08-19T13:58:20;10.27;;;7.13;;
51228;SDS011;37304;52.216;6.874;2022-08-19T14:03:22;11.57;;;6.45;;
51228;SDS011;37304;52.216;6.874;2022-08-19T14:08:24;7.43;;;5.47;;
51228;SDS011;37304;52.216;6.874;2022-08-19T14:13:25;6.28;;;5.50;;
51228;SDS011;37304;52.216;6.874;2022-08-19T14:18:26;7.55;;;5.63;;
51228;SDS011;37304;52.216;6.874;2022-08-19T14:23:26;8.25;;;6.25;;
51228;SDS011;37304;52.216;6.874;2022-08-19T14:28:26;9.63;;;6.47;;
51228;SDS011;37304;52.216;6.874;2022-08-19T14:33:28;7.73;;;6.13;;
51228;SDS011;37304;52.216;6.874;2022-08-19T14:38:28;9.40;;;6.70;;
51228;SDS011;37304;52.216;6.874;2022-08-19T14:43:31;8.50;;;5.85;;
51228;SDS011;37304;52.216;6.874;2022-08-19T14:48:31;12.27;;;6.82;;
51228;SDS011;37304;52.216;6.874;2022-08-19T14:53:32;9.50;;;6.45;;
51228;SDS011;37304;52.216;6.874;2022-08-19T14:58:35;9.63;;;6.60;;
51228;SDS011;37304;52.216;6.874;2022-08-19T15:03:36;9.85;;;6.50;;
51228;SDS011;37304;52.216;6.874;2022-08-19T15:08:37;11.18;;;6.07;;
51228;SDS011;37304;52.216;6.874;2022-08-19T15:13:38;7.23;;;5.70;;
51228;SDS011;37304;52.216;6.874;2022-08-19T15:18:39;7.30;;;5.85;;
51228;SDS011;37304;52.216;6.874;2022-08-19T15:23:42;7.53;;;5.00;;
51228;SDS011;37304;52.216;6.874;2022-08-19T15:28:42;9.52;;;5.28;;
51228;SDS011;37304;52.216;6.874;2022-08-19T15:33:43;7.85;;;4.22;;
51228;SDS011;37304;52.216;6.874;2022-08-19T15:38:44;13.15;;;4.65;;
51228;SDS011;37304;52.216;6.874;2022-08-19T15:43:45;9.13;;;5.20;;
51228;SDS011;37304;52.216;6.874;2022-08-19T15:48:47;8.00;;;5.37;;
51228;SDS011;37304;52.216;6.874;2022-08-19T15:53:48;8.05;;;5.53;;
51228;SDS011;37304;52.216;6.874;2022-08-19T15:58:49;13.68;;;9.02;;
51228;SDS011;37304;52.216;6.874;2022-08-19T16:04:08;7.30;;;5.00;;
51228;SDS011;37304;52.216;6.874;2022-08-19T16:09:28;7.15;;;4.95;;
51228;SDS011;37304;52.216;6.874;2022-08-19T16:14:33;7.20;;;6.13;;
51228;SDS011;37304;52.216;6.874;2022-08-19T16:19:37;6.03;;;5.43;;
51228;SDS011;37304;52.216;6.874;2022-08-19T16:24:37;12.48;;;9.23;;
51228;SDS011;37304;52.216;6.874;2022-08-19T16:29:38;15.55;;;12.57;;
51228;SDS011;37304;52.216;6.874;2022-08-19T16:34:38;17.35;;;12.43;;
51228;SDS011;37304;52.216;6.874;2022-08-19T16:39:40;20.13;;;12.83;;
51228;SDS011;37304;52.216;6.874;2022-08-19T16:44:41;17.33;;;13.55;;
51228;SDS011;37304;52.216;6.874;2022-08-19T16:49:44;20.05;;;13.95;;
51228;SDS011;37304;52.216;6.874;2022-08-19T16:54:44;19.83;;;13.90;;
51228;SDS011;37304;52.216;6.874;2022-08-19T16:59:44;19.10;;;15.15;;
51228;SDS011;37304;52.216;6.874;2022-08-19T17:04:45;18.10;;;14.00;;
51228;SDS011;37304;52.216;6.874;2022-08-19T17:09:48;18.23;;;13.63;;
51228;SDS011;37304;52.216;6.874;2022-08-19T17:14:49;19.88;;;12.02;;
51228;SDS011;37304;52.216;6.874;2022-08-19T17:19:49;15.23;;;10.98;;
51228;SDS011;37304;52.216;6.874;2022-08-19T17:24:50;14.65;;;10.60;;
51228;SDS011;37304;52.216;6.874;2022-08-19T17:29:51;15.07;;;11.18;;
51228;SDS011;37304;52.216;6.874;2022-08-19T17:34:52;13.95;;;10.60;;
51228;SDS011;37304;52.216;6.874;2022-08-19T17:39:55;14.02;;;10.80;;
51228;SDS011;37304;52.216;6.874;2022-08-19T17:44:55;14.33;;;12.10;;
51228;SDS011;37304;52.216;6.874;2022-08-19T17:49:59;15.88;;;12.43;;
51228;SDS011;37304;52.216;6.874;2022-08-19T17:54:59;16.45;;;13.00;;
51228;SDS011;37304;52.216;6.874;2022-08-19T18:00:00;18.38;;;13.52;;
51228;SDS011;37304;52.216;6.874;2022-08-19T18:05:02;20.58;;;16.23;;
51228;SDS011;37304;52.216;6.874;2022-08-19T18:10:03;26.52;;;18.80;;
51228;SDS011;37304;52.216;6.874;2022-08-19T18:15:05;27.92;;;19.80;;
51228;SDS011;37304;52.216;6.874;2022-08-19T18:20:08;24.47;;;17.57;;
51228;SDS011;37304;52.216;6.874;2022-08-19T18:25:12;25.70;;;19.00;;
51228;SDS011;37304;52.216;6.874;2022-08-19T18:30:18;30.10;;;21.48;;
51228;SDS011;37304;52.216;6.874;2022-08-19T18:35:21;30.65;;;21.70;;
51228;SDS011;37304;52.216;6.874;2022-08-19T18:40:25;31.92;;;21.55;;
51228;SDS011;37304;52.216;6.874;2022-08-19T18:45:46;27.38;;;20.67;;
51228;SDS011;37304;52.216;6.874;2022-08-19T18:51:05;29.40;;;20.65;;
51228;SDS011;37304;52.216;6.874;2022-08-19T18:56:07;30.02;;;20.75;;
51228;SDS011;37304;52.216;6.874;2022-08-19T19:01:10;29.88;;;21.10;;
51228;SDS011;37304;52.216;6.874;2022-08-19T19:06:14;31.80;;;23.02;;
51228;SDS011;37304;52.216;6.874;2022-08-19T19:11:28;29.13;;;21.88;;
51228;SDS011;37304;52.216;6.874;2022-08-19T19:16:32;30.95;;;22.75;;
51228;SDS011;37304;52.216;6.874;2022-08-19T19:21:33;34.90;;;24.20;;
51228;SDS011;37304;52.216;6.874;2022-08-19T19:26:34;29.25;;;22.90;;
51228;SDS011;37304;52.216;6.874;2022-08-19T19:31:35;28.85;;;22.88;;
51228;SDS011;37304;52.216;6.874;2022-08-19T19:36:36;33.20;;;22.60;;
51228;SDS011;37304;52.216;6.874;2022-08-19T19:41:37;26.35;;;21.30;;
51228;SDS011;37304;52.216;6.874;2022-08-19T19:46:38;23.90;;;19.00;;
51228;SDS011;37304;52.216;6.874;2022-08-19T19:51:41;26.13;;;20.38;;
51228;SDS011;37304;52.216;6.874;2022-08-19T19:56:42;26.13;;;19.50;;
51228;SDS011;37304;52.216;6.874;2022-08-19T20:01:43;32.58;;;20.42;;
51228;SDS011;37304;52.216;6.874;2022-08-19T20:06:45;28.02;;;21.38;;
51228;SDS011;37304;52.216;6.874;2022-08-19T20:16:51;25.42;;;20.50;;
51228;SDS011;37304;52.216;6.874;2022-08-19T20:21:53;32.45;;;21.17;;
51228;SDS011;37304;52.216;6.874;2022-08-19T20:26:54;24.77;;;19.05;;
51228;SDS011;37304;52.216;6.874;2022-08-19T20:31:55;26.00;;;18.80;;
51228;SDS011;37304;52.216;6.874;2022-08-19T20:36:55;20.85;;;16.92;;
51228;SDS011;37304;52.216;6.874;2022-08-19T20:41:56;23.80;;;17.73;;
51228;SDS011;37304;52.216;6.874;2022-08-19T20:46:56;22.60;;;18.15;;
51228;SDS011;37304;52.216;6.874;2022-08-19T20:51:56;21.80;;;18.03;;
51228;SDS011;37304;52.216;6.874;2022-08-19T20:56:57;18.63;;;16.63;;
51228;SDS011;37304;52.216;6.874;2022-08-19T21:01:57;19.70;;;16.33;;
51228;SDS011;37304;52.216;6.874;2022-08-19T21:06:58;21.17;;;16.85;;
51228;SDS011;37304;52.216;6.874;2022-08-19T21:11:58;19.60;;;15.77;;
51228;SDS011;37304;52.216;6.874;2022-08-19T21:17:03;20.50;;;16.40;;
51228;SDS011;37304;52.216;6.874;2022-08-19T21:22:03;20.90;;;17.42;;
51228;SDS011;37304;52.216;6.874;2022-08-19T21:27:04;22.65;;;17.52;;
51228;SDS011;37304;52.216;6.874;2022-08-19T21:32:05;21.52;;;17.90;;
51228;SDS011;37304;52.216;6.874;2022-08-19T21:37:06;23.15;;;18.05;;
51228;SDS011;37304;52.216;6.874;2022-08-19T21:42:07;21.00;;;17.35;;
51228;SDS011;37304;52.216;6.874;2022-08-19T21:47:07;23.75;;;19.02;;
51228;SDS011;37304;52.216;6.874;2022-08-19T21:52:07;22.37;;;18.07;;
51228;SDS011;37304;52.216;6.874;2022-08-19T21:57:08;22.00;;;18.70;;
51228;SDS011;37304;52.216;6.874;2022-08-19T22:02:08;25.42;;;20.00;;
51228;SDS011;37304;52.216;6.874;2022-08-19T22:07:10;23.50;;;18.10;;
51228;SDS011;37304;52.216;6.874;2022-08-19T22:12:46;20.77;;;17.23;;
51228;SDS011;37304;52.216;6.874;2022-08-19T22:17:41;21.75;;;18.58;;
51228;SDS011;37304;52.216;6.874;2022-08-19T22:22:50;21.50;;;17.77;;
51228;SDS011;37304;52.216;6.874;2022-08-19T22:27:55;25.15;;;19.90;;
51228;SDS011;37304;52.216;6.874;2022-08-19T22:32:57;20.98;;;16.25;;
51228;SDS011;37304;52.216;6.874;2022-08-19T22:38:02;20.80;;;14.30;;
51228;SDS011;37304;52.216;6.874;2022-08-19T22:43:10;9.80;;;8.05;;
51228;SDS011;37304;52.216;6.874;2022-08-19T22:48:15;8.07;;;6.93;;
51228;SDS011;37304;52.216;6.874;2022-08-19T22:53:17;7.15;;;5.90;;
51228;SDS011;37304;52.216;6.874;2022-08-19T22:58:18;6.15;;;5.55;;
51228;SDS011;37304;52.216;6.874;2022-08-19T23:03:19;5.57;;;4.38;;
51228;SDS011;37304;52.216;6.874;2022-08-19T23:08:19;3.92;;;2.83;;
51228;SDS011;37304;52.216;6.874;2022-08-19T23:13:20;2.63;;;2.10;;
51228;SDS011;37304;52.216;6.874;2022-08-19T23:18:21;2.75;;;2.28;;
51228;SDS011;37304;52.216;6.874;2022-08-19T23:23:21;2.88;;;2.47;;
51228;SDS011;37304;52.216;6.874;2022-08-19T23:28:23;2.92;;;2.60;;
51228;SDS011;37304;52.216;6.874;2022-08-19T23:33:42;3.00;;;2.70;;
51228;SDS011;37304;52.216;6.874;2022-08-19T23:38:43;2.72;;;2.50;;
51228;SDS011;37304;52.216;6.874;2022-08-19T23:43:45;2.80;;;2.42;;
51228;SDS011;37304;52.216;6.874;2022-08-19T23:48:46;3.75;;;2.70;;
51228;SDS011;37304;52.216;6.874;2022-08-19T23:53:46;2.72;;;2.45;;
51228;SDS011;37304;52.216;6.874;2022-08-19T23:58:47;3.88;;;3.08;;
